sensor_id;sensor_type;location;lat;lon;timestamp;P1;durP1;ratioP1;P2;durP2;ratioP2
22922;SDS011;11627;51.322;22.816;2023-07-20T00:02:10;7.07;;;4.40;;
22922;SDS011;11627;51.322;22.816;2023-07-20T00:04:36;9.50;;;4.75;;
22922;SDS011;11627;51.322;22.816;2023-07-20T00:07:04;8.02;;;4.68;;
22922;SDS011;11627;51.322;22.816;2023-07-20T00:09:32;9.23;;;4.95;;
22922;SDS011;11627;51.322;22.816;2023-07-20T00:11:59;8.43;;;4.90;;
22922;SDS011;11627;51.322;22.816;2023-07-20T00:14:26;9.52;;;4.70;;
22922;SDS011;11627;51.322;22.816;2023-07-20T00:16:54;10.75;;;5.32;;
22922;SDS011;11627;51.322;22.816;2023-07-20T00:19:26;8.02;;;4.70;;
22922;SDS011;11627;51.322;22.816;2023-07-20T00:21:55;10.80;;;5.07;;
22922;SDS011;11627;51.322;22.816;2023-07-20T00:24:22;6.88;;;4.40;;
22922;SDS011;11627;51.322;22.816;2023-07-20T00:26:50;7.93;;;5.22;;
22922;SDS011;11627;51.322;22.816;2023-07-20T00:29:17;8.32;;;4.93;;
22922;SDS011;11627;51.322;22.816;2023-07-20T00:31:46;7.60;;;4.70;;
22922;SDS011;11627;51.322;22.816;2023-07-20T00:34:13;9.38;;;4.93;;
22922;SDS011;11627;51.322;22.816;2023-07-20T00:36:40;8.52;;;5.00;;
22922;SDS011;11627;51.322;22.816;2023-07-20T00:39:08;7.97;;;4.80;;
22922;SDS011;11627;51.322;22.816;2023-07-20T00:41:34;10.25;;;4.88;;
22922;SDS011;11627;51.322;22.816;2023-07-20T00:44:02;8.55;;;4.63;;
22922;SDS011;11627;51.322;22.816;2023-07-20T00:46:29;6.45;;;4.15;;
22922;SDS011;11627;51.322;22.816;2023-07-20T00:48:58;8.75;;;4.78;;
22922;SDS011;11627;51.322;22.816;2023-07-20T00:51:25;9.88;;;5.10;;
22922;SDS011;11627;51.322;22.816;2023-07-20T00:53:53;7.78;;;4.80;;
22922;SDS011;11627;51.322;22.816;2023-07-20T00:56:21;12.55;;;4.45;;
22922;SDS011;11627;51.322;22.816;2023-07-20T00:58:48;7.85;;;4.72;;
22922;SDS011;11627;51.322;22.816;2023-07-20T01:01:16;7.47;;;5.35;;
22922;SDS011;11627;51.322;22.816;2023-07-20T01:03:43;6.40;;;4.53;;
22922;SDS011;11627;51.322;22.816;2023-07-20T01:09:34;8.43;;;5.05;;
22922;SDS011;11627;51.322;22.816;2023-07-20T01:15:13;10.25;;;4.85;;
22922;SDS011;11627;51.322;22.816;2023-07-20T01:17:40;8.73;;;5.45;;
22922;SDS011;11627;51.322;22.816;2023-07-20T01:20:08;9.70;;;5.25;;
22922;SDS011;11627;51.322;22.816;2023-07-20T01:29:42;8.45;;;5.10;;
22922;SDS011;11627;51.322;22.816;2023-07-20T01:32:30;9.25;;;5.25;;
22922;SDS011;11627;51.322;22.816;2023-07-20T01:34:58;7.03;;;5.30;;
22922;SDS011;11627;51.322;22.816;2023-07-20T01:37:27;8.27;;;5.35;;
22922;SDS011;11627;51.322;22.816;2023-07-20T01:39:58;8.05;;;4.90;;
22922;SDS011;11627;51.322;22.816;2023-07-20T01:42:26;5.65;;;4.28;;
22922;SDS011;11627;51.322;22.816;2023-07-20T01:44:54;7.95;;;5.10;;
22922;SDS011;11627;51.322;22.816;2023-07-20T01:47:19;7.30;;;4.93;;
22922;SDS011;11627;51.322;22.816;2023-07-20T01:49:46;7.82;;;5.25;;
22922;SDS011;11627;51.322;22.816;2023-07-20T01:52:13;6.93;;;5.10;;
22922;SDS011;11627;51.322;22.816;2023-07-20T01:54:41;6.85;;;4.68;;
22922;SDS011;11627;51.322;22.816;2023-07-20T01:57:08;5.70;;;4.30;;
22922;SDS011;11627;51.322;22.816;2023-07-20T01:59:35;7.78;;;4.78;;
22922;SDS011;11627;51.322;22.816;2023-07-20T02:02:02;9.40;;;5.00;;
22922;SDS011;11627;51.322;22.816;2023-07-20T02:04:29;9.60;;;4.85;;
22922;SDS011;11627;51.322;22.816;2023-07-20T02:06:56;7.78;;;4.45;;
22922;SDS011;11627;51.322;22.816;2023-07-20T02:09:23;7.07;;;4.53;;
22922;SDS011;11627;51.322;22.816;2023-07-20T02:11:50;8.75;;;5.03;;
22922;SDS011;11627;51.322;22.816;2023-07-20T02:14:17;10.95;;;5.35;;
22922;SDS011;11627;51.322;22.816;2023-07-20T02:16:44;6.03;;;4.55;;
22922;SDS011;11627;51.322;22.816;2023-07-20T02:19:13;7.78;;;4.55;;
22922;SDS011;11627;51.322;22.816;2023-07-20T02:21:40;8.75;;;5.47;;
22922;SDS011;11627;51.322;22.816;2023-07-20T02:24:07;7.68;;;5.25;;
22922;SDS011;11627;51.322;22.816;2023-07-20T02:26:34;9.88;;;4.93;;
22922;SDS011;11627;51.322;22.816;2023-07-20T02:29:03;6.40;;;4.68;;
22922;SDS011;11627;51.322;22.816;2023-07-20T02:31:31;5.65;;;4.10;;
22922;SDS011;11627;51.322;22.816;2023-07-20T02:33:58;6.78;;;4.93;;
22922;SDS011;11627;51.322;22.816;2023-07-20T02:36:25;8.95;;;4.80;;
22922;SDS011;11627;51.322;22.816;2023-07-20T02:38:52;7.78;;;4.50;;
22922;SDS011;11627;51.322;22.816;2023-07-20T02:41:19;7.05;;;4.18;;
22922;SDS011;11627;51.322;22.816;2023-07-20T02:43:46;11.48;;;4.45;;
22922;SDS011;11627;51.322;22.816;2023-07-20T02:46:13;7.78;;;5.47;;
22922;SDS011;11627;51.322;22.816;2023-07-20T02:48:41;8.23;;;4.18;;
22922;SDS011;11627;51.322;22.816;2023-07-20T02:51:09;9.85;;;4.20;;
22922;SDS011;11627;51.322;22.816;2023-07-20T02:53:37;7.55;;;4.78;;
22922;SDS011;11627;51.322;22.816;2023-07-20T02:56:05;6.95;;;5.20;;
22922;SDS011;11627;51.322;22.816;2023-07-20T02:58:30;6.50;;;4.68;;
22922;SDS011;11627;51.322;22.816;2023-07-20T03:01:03;9.27;;;5.07;;
22922;SDS011;11627;51.322;22.816;2023-07-20T03:03:30;9.05;;;5.00;;
22922;SDS011;11627;51.322;22.816;2023-07-20T03:05:59;12.73;;;5.18;;
22922;SDS011;11627;51.322;22.816;2023-07-20T03:08:26;7.57;;;4.97;;
22922;SDS011;11627;51.322;22.816;2023-07-20T03:10:54;10.35;;;6.07;;
22922;SDS011;11627;51.322;22.816;2023-07-20T03:13:21;15.35;;;5.85;;
22922;SDS011;11627;51.322;22.816;2023-07-20T03:15:51;14.88;;;5.55;;
22922;SDS011;11627;51.322;22.816;2023-07-20T03:18:18;8.95;;;5.32;;
22922;SDS011;11627;51.322;22.816;2023-07-20T03:20:46;11.35;;;5.70;;
22922;SDS011;11627;51.322;22.816;2023-07-20T03:23:14;10.80;;;5.53;;
22922;SDS011;11627;51.322;22.816;2023-07-20T03:25:43;8.13;;;5.40;;
22922;SDS011;11627;51.322;22.816;2023-07-20T03:28:10;9.10;;;5.28;;
22922;SDS011;11627;51.322;22.816;2023-07-20T03:30:37;9.00;;;5.78;;
22922;SDS011;11627;51.322;22.816;2023-07-20T03:33:05;8.82;;;5.40;;
22922;SDS011;11627;51.322;22.816;2023-07-20T03:35:32;8.38;;;5.30;;
22922;SDS011;11627;51.322;22.816;2023-07-20T03:37:59;8.65;;;5.55;;
22922;SDS011;11627;51.322;22.816;2023-07-20T03:40:25;10.38;;;5.88;;
22922;SDS011;11627;51.322;22.816;2023-07-20T03:42:52;9.18;;;5.95;;
22922;SDS011;11627;51.322;22.816;2023-07-20T03:45:19;7.30;;;5.78;;
22922;SDS011;11627;51.322;22.816;2023-07-20T03:47:46;10.70;;;5.93;;
22922;SDS011;11627;51.322;22.816;2023-07-20T03:50:14;8.15;;;5.60;;
22922;SDS011;11627;51.322;22.816;2023-07-20T03:52:41;9.13;;;5.70;;
22922;SDS011;11627;51.322;22.816;2023-07-20T03:55:08;13.25;;;5.90;;
22922;SDS011;11627;51.322;22.816;2023-07-20T03:57:37;11.00;;;5.53;;
22922;SDS011;11627;51.322;22.816;2023-07-20T04:00:04;15.20;;;5.78;;
22922;SDS011;11627;51.322;22.816;2023-07-20T04:02:34;17.35;;;5.78;;
22922;SDS011;11627;51.322;22.816;2023-07-20T04:05:01;7.78;;;5.28;;
22922;SDS011;11627;51.322;22.816;2023-07-20T04:07:28;9.95;;;5.90;;
22922;SDS011;11627;51.322;22.816;2023-07-20T04:09:55;9.90;;;5.50;;
22922;SDS011;11627;51.322;22.816;2023-07-20T04:12:22;11.77;;;6.03;;
22922;SDS011;11627;51.322;22.816;2023-07-20T04:14:50;10.52;;;5.80;;
22922;SDS011;11627;51.322;22.816;2023-07-20T04:17:17;8.05;;;5.07;;
22922;SDS011;11627;51.322;22.816;2023-07-20T04:19:45;7.90;;;5.60;;
22922;SDS011;11627;51.322;22.816;2023-07-20T04:22:12;7.60;;;5.32;;
22922;SDS011;11627;51.322;22.816;2023-07-20T04:24:45;9.50;;;5.88;;
22922;SDS011;11627;51.322;22.816;2023-07-20T04:27:13;8.60;;;5.68;;
22922;SDS011;11627;51.322;22.816;2023-07-20T04:29:41;9.00;;;5.78;;
22922;SDS011;11627;51.322;22.816;2023-07-20T04:32:11;11.50;;;5.57;;
22922;SDS011;11627;51.322;22.816;2023-07-20T04:34:41;10.68;;;5.50;;
22922;SDS011;11627;51.322;22.816;2023-07-20T04:37:08;9.30;;;5.82;;
22922;SDS011;11627;51.322;22.816;2023-07-20T04:39:37;9.25;;;5.65;;
22922;SDS011;11627;51.322;22.816;2023-07-20T04:42:06;12.15;;;6.30;;
22922;SDS011;11627;51.322;22.816;2023-07-20T04:44:35;8.38;;;5.20;;
22922;SDS011;11627;51.322;22.816;2023-07-20T04:47:05;7.65;;;5.15;;
22922;SDS011;11627;51.322;22.816;2023-07-20T04:49:39;10.90;;;6.13;;
22922;SDS011;11627;51.322;22.816;2023-07-20T04:52:06;10.45;;;5.70;;
22922;SDS011;11627;51.322;22.816;2023-07-20T04:54:35;7.93;;;5.28;;
22922;SDS011;11627;51.322;22.816;2023-07-20T04:57:05;8.45;;;5.20;;
22922;SDS011;11627;51.322;22.816;2023-07-20T04:59:39;10.25;;;5.40;;
22922;SDS011;11627;51.322;22.816;2023-07-20T05:02:07;9.80;;;5.95;;
22922;SDS011;11627;51.322;22.816;2023-07-20T05:04:35;9.70;;;6.50;;
22922;SDS011;11627;51.322;22.816;2023-07-20T05:07:02;11.95;;;6.30;;
22922;SDS011;11627;51.322;22.816;2023-07-20T05:09:30;10.73;;;6.30;;
22922;SDS011;11627;51.322;22.816;2023-07-20T05:11:59;9.60;;;6.22;;
22922;SDS011;11627;51.322;22.816;2023-07-20T05:14:26;10.75;;;6.60;;
22922;SDS011;11627;51.322;22.816;2023-07-20T05:16:53;10.80;;;6.80;;
22922;SDS011;11627;51.322;22.816;2023-07-20T05:19:20;13.25;;;7.03;;
22922;SDS011;11627;51.322;22.816;2023-07-20T05:21:48;11.73;;;8.13;;
22922;SDS011;11627;51.322;22.816;2023-07-20T05:24:17;12.52;;;8.32;;
22922;SDS011;11627;51.322;22.816;2023-07-20T05:26:45;12.25;;;8.43;;
22922;SDS011;11627;51.322;22.816;2023-07-20T05:29:14;14.10;;;9.52;;
22922;SDS011;11627;51.322;22.816;2023-07-20T05:31:41;15.75;;;8.93;;
22922;SDS011;11627;51.322;22.816;2023-07-20T05:34:10;19.02;;;9.13;;
22922;SDS011;11627;51.322;22.816;2023-07-20T05:36:40;13.40;;;9.23;;
22922;SDS011;11627;51.322;22.816;2023-07-20T05:39:08;18.77;;;9.70;;
22922;SDS011;11627;51.322;22.816;2023-07-20T05:41:35;14.20;;;10.13;;
22922;SDS011;11627;51.322;22.816;2023-07-20T05:44:04;16.77;;;9.73;;
22922;SDS011;11627;51.322;22.816;2023-07-20T05:46:32;17.77;;;10.52;;
22922;SDS011;11627;51.322;22.816;2023-07-20T05:49:01;14.95;;;10.20;;
22922;SDS011;11627;51.322;22.816;2023-07-20T05:51:30;19.35;;;11.45;;
22922;SDS011;11627;51.322;22.816;2023-07-20T05:53:58;19.80;;;11.20;;
22922;SDS011;11627;51.322;22.816;2023-07-20T05:56:25;21.75;;;9.40;;
22922;SDS011;11627;51.322;22.816;2023-07-20T05:58:53;15.93;;;10.88;;
22922;SDS011;11627;51.322;22.816;2023-07-20T06:01:22;14.77;;;10.82;;
22922;SDS011;11627;51.322;22.816;2023-07-20T06:03:53;15.40;;;10.27;;
22922;SDS011;11627;51.322;22.816;2023-07-20T06:06:20;17.48;;;11.45;;
22922;SDS011;11627;51.322;22.816;2023-07-20T06:08:48;16.30;;;11.30;;
22922;SDS011;11627;51.322;22.816;2023-07-20T06:11:16;17.17;;;10.60;;
22922;SDS011;11627;51.322;22.816;2023-07-20T06:13:44;14.27;;;10.68;;
22922;SDS011;11627;51.322;22.816;2023-07-20T06:16:12;14.88;;;9.07;;
22922;SDS011;11627;51.322;22.816;2023-07-20T06:18:39;13.93;;;8.90;;
22922;SDS011;11627;51.322;22.816;2023-07-20T06:21:08;17.27;;;8.00;;
22922;SDS011;11627;51.322;22.816;2023-07-20T06:23:35;14.13;;;7.78;;
22922;SDS011;11627;51.322;22.816;2023-07-20T06:26:02;12.98;;;7.13;;
22922;SDS011;11627;51.322;22.816;2023-07-20T06:28:33;10.15;;;6.30;;
22922;SDS011;11627;51.322;22.816;2023-07-20T06:31:03;11.90;;;6.72;;
22922;SDS011;11627;51.322;22.816;2023-07-20T06:33:32;14.68;;;7.10;;
22922;SDS011;11627;51.322;22.816;2023-07-20T06:35:58;8.77;;;6.38;;
22922;SDS011;11627;51.322;22.816;2023-07-20T06:38:25;7.20;;;6.10;;
22922;SDS011;11627;51.322;22.816;2023-07-20T06:40:55;11.07;;;6.40;;
22922;SDS011;11627;51.322;22.816;2023-07-20T06:43:24;8.52;;;5.65;;
22922;SDS011;11627;51.322;22.816;2023-07-20T06:45:52;11.32;;;6.38;;
22922;SDS011;11627;51.322;22.816;2023-07-20T06:48:22;9.15;;;6.68;;
22922;SDS011;11627;51.322;22.816;2023-07-20T06:50:54;11.95;;;7.15;;
22922;SDS011;11627;51.322;22.816;2023-07-20T06:53:23;14.18;;;6.82;;
22922;SDS011;11627;51.322;22.816;2023-07-20T06:55:52;12.15;;;6.55;;
22922;SDS011;11627;51.322;22.816;2023-07-20T06:58:19;10.02;;;6.50;;
22922;SDS011;11627;51.322;22.816;2023-07-20T07:00:48;6.60;;;5.57;;
22922;SDS011;11627;51.322;22.816;2023-07-20T07:03:17;8.02;;;5.85;;
22922;SDS011;11627;51.322;22.816;2023-07-20T07:05:46;9.10;;;6.03;;
22922;SDS011;11627;51.322;22.816;2023-07-20T07:08:14;9.18;;;5.88;;
22922;SDS011;11627;51.322;22.816;2023-07-20T07:10:41;7.05;;;5.63;;
22922;SDS011;11627;51.322;22.816;2023-07-20T07:13:09;9.82;;;5.85;;
22922;SDS011;11627;51.322;22.816;2023-07-20T07:15:36;9.45;;;5.50;;
22922;SDS011;11627;51.322;22.816;2023-07-20T07:18:05;10.05;;;5.35;;
22922;SDS011;11627;51.322;22.816;2023-07-20T07:20:32;8.45;;;5.55;;
22922;SDS011;11627;51.322;22.816;2023-07-20T07:22:59;10.35;;;5.57;;
22922;SDS011;11627;51.322;22.816;2023-07-20T07:25:27;11.30;;;5.75;;
22922;SDS011;11627;51.322;22.816;2023-07-20T07:27:55;8.35;;;5.68;;
22922;SDS011;11627;51.322;22.816;2023-07-20T07:30:23;11.23;;;5.88;;
22922;SDS011;11627;51.322;22.816;2023-07-20T07:32:50;10.45;;;6.00;;
22922;SDS011;11627;51.322;22.816;2023-07-20T07:35:18;10.32;;;5.82;;
22922;SDS011;11627;51.322;22.816;2023-07-20T07:37:45;12.52;;;5.57;;
22922;SDS011;11627;51.322;22.816;2023-07-20T07:40:13;8.57;;;5.55;;
22922;SDS011;11627;51.322;22.816;2023-07-20T07:42:40;8.65;;;5.43;;
22922;SDS011;11627;51.322;22.816;2023-07-20T07:45:07;8.73;;;6.32;;
22922;SDS011;11627;51.322;22.816;2023-07-20T07:47:35;8.30;;;5.40;;
22922;SDS011;11627;51.322;22.816;2023-07-20T07:50:04;7.93;;;5.82;;
22922;SDS011;11627;51.322;22.816;2023-07-20T07:52:31;14.13;;;6.45;;
22922;SDS011;11627;51.322;22.816;2023-07-20T07:55:00;8.32;;;7.07;;
22922;SDS011;11627;51.322;22.816;2023-07-20T07:57:27;11.07;;;6.88;;
22922;SDS011;11627;51.322;22.816;2023-07-20T07:59:56;13.32;;;7.35;;
22922;SDS011;11627;51.322;22.816;2023-07-20T08:02:25;12.38;;;6.82;;
22922;SDS011;11627;51.322;22.816;2023-07-20T08:04:53;12.38;;;6.68;;
22922;SDS011;11627;51.322;22.816;2023-07-20T08:07:20;12.20;;;7.47;;
22922;SDS011;11627;51.322;22.816;2023-07-20T08:09:49;9.55;;;6.93;;
22922;SDS011;11627;51.322;22.816;2023-07-20T08:12:16;12.32;;;6.82;;
22922;SDS011;11627;51.322;22.816;2023-07-20T08:14:47;9.38;;;7.15;;
22922;SDS011;11627;51.322;22.816;2023-07-20T08:17:14;10.90;;;7.20;;
22922;SDS011;11627;51.322;22.816;2023-07-20T08:19:43;8.75;;;6.68;;
22922;SDS011;11627;51.322;22.816;2023-07-20T08:22:10;9.75;;;6.53;;
22922;SDS011;11627;51.322;22.816;2023-07-20T08:24:41;9.07;;;6.78;;
22922;SDS011;11627;51.322;22.816;2023-07-20T08:27:09;11.88;;;6.10;;
22922;SDS011;11627;51.322;22.816;2023-07-20T08:29:36;11.50;;;6.90;;
22922;SDS011;11627;51.322;22.816;2023-07-20T08:32:07;13.40;;;7.18;;
22922;SDS011;11627;51.322;22.816;2023-07-20T08:34:34;10.23;;;7.30;;
22922;SDS011;11627;51.322;22.816;2023-07-20T08:37:01;13.27;;;7.65;;
22922;SDS011;11627;51.322;22.816;2023-07-20T08:39:29;7.47;;;6.15;;
22922;SDS011;11627;51.322;22.816;2023-07-20T08:41:56;9.18;;;5.85;;
22922;SDS011;11627;51.322;22.816;2023-07-20T08:44:32;9.73;;;5.28;;
22922;SDS011;11627;51.322;22.816;2023-07-20T08:47:00;6.57;;;5.88;;
22922;SDS011;11627;51.322;22.816;2023-07-20T08:49:31;8.85;;;6.28;;
22922;SDS011;11627;51.322;22.816;2023-07-20T08:51:59;8.18;;;6.15;;
22922;SDS011;11627;51.322;22.816;2023-07-20T08:54:27;14.65;;;5.65;;
22922;SDS011;11627;51.322;22.816;2023-07-20T08:57:02;10.40;;;6.47;;
22922;SDS011;11627;51.322;22.816;2023-07-20T08:59:31;9.07;;;6.80;;
22922;SDS011;11627;51.322;22.816;2023-07-20T09:02:01;10.45;;;6.07;;
22922;SDS011;11627;51.322;22.816;2023-07-20T09:04:32;10.60;;;5.28;;
22922;SDS011;11627;51.322;22.816;2023-07-20T09:06:59;6.68;;;5.30;;
22922;SDS011;11627;51.322;22.816;2023-07-20T09:09:27;12.02;;;5.57;;
22922;SDS011;11627;51.322;22.816;2023-07-20T09:11:54;8.02;;;5.43;;
22922;SDS011;11627;51.322;22.816;2023-07-20T09:14:22;8.75;;;5.35;;
22922;SDS011;11627;51.322;22.816;2023-07-20T09:16:53;9.77;;;5.35;;
22922;SDS011;11627;51.322;22.816;2023-07-20T09:19:22;7.82;;;4.50;;
22922;SDS011;11627;51.322;22.816;2023-07-20T09:21:51;7.13;;;4.45;;
22922;SDS011;11627;51.322;22.816;2023-07-20T09:24:19;5.47;;;4.20;;
22922;SDS011;11627;51.322;22.816;2023-07-20T09:26:48;9.05;;;4.55;;
22922;SDS011;11627;51.322;22.816;2023-07-20T09:29:20;7.30;;;4.38;;
22922;SDS011;11627;51.322;22.816;2023-07-20T09:32:05;7.72;;;5.00;;
22922;SDS011;11627;51.322;22.816;2023-07-20T09:34:33;14.88;;;4.80;;
22922;SDS011;11627;51.322;22.816;2023-07-20T09:37:00;6.93;;;4.70;;
22922;SDS011;11627;51.322;22.816;2023-07-20T09:39:27;6.03;;;4.53;;
22922;SDS011;11627;51.322;22.816;2023-07-20T09:41:54;9.10;;;4.78;;
22922;SDS011;11627;51.322;22.816;2023-07-20T09:44:27;7.75;;;5.32;;
22922;SDS011;11627;51.322;22.816;2023-07-20T09:46:56;9.10;;;5.35;;
22922;SDS011;11627;51.322;22.816;2023-07-20T09:49:23;7.35;;;4.95;;
22922;SDS011;11627;51.322;22.816;2023-07-20T09:51:50;5.70;;;4.65;;
22922;SDS011;11627;51.322;22.816;2023-07-20T09:54:20;8.90;;;5.25;;
22922;SDS011;11627;51.322;22.816;2023-07-20T09:56:49;8.00;;;5.45;;
22922;SDS011;11627;51.322;22.816;2023-07-20T09:59:18;11.82;;;4.80;;
22922;SDS011;11627;51.322;22.816;2023-07-20T10:01:46;5.90;;;4.63;;
22922;SDS011;11627;51.322;22.816;2023-07-20T10:04:13;6.30;;;4.30;;
22922;SDS011;11627;51.322;22.816;2023-07-20T10:06:42;5.53;;;4.03;;
22922;SDS011;11627;51.322;22.816;2023-07-20T10:09:14;6.45;;;3.80;;
22922;SDS011;11627;51.322;22.816;2023-07-20T10:11:43;7.18;;;4.07;;
22922;SDS011;11627;51.322;22.816;2023-07-20T10:14:18;5.28;;;3.70;;
22922;SDS011;11627;51.322;22.816;2023-07-20T10:16:54;8.77;;;3.65;;
22922;SDS011;11627;51.322;22.816;2023-07-20T10:22:25;5.57;;;3.30;;
22922;SDS011;11627;51.322;22.816;2023-07-20T10:24:54;4.30;;;3.88;;
22922;SDS011;11627;51.322;22.816;2023-07-20T10:27:24;5.93;;;3.10;;
22922;SDS011;11627;51.322;22.816;2023-07-20T10:29:51;5.00;;;3.30;;
22922;SDS011;11627;51.322;22.816;2023-07-20T10:32:18;9.15;;;3.88;;
22922;SDS011;11627;51.322;22.816;2023-07-20T10:34:52;5.13;;;3.85;;
22922;SDS011;11627;51.322;22.816;2023-07-20T10:43:05;8.45;;;3.60;;
22922;SDS011;11627;51.322;22.816;2023-07-20T10:45:36;5.55;;;3.30;;
22922;SDS011;11627;51.322;22.816;2023-07-20T10:48:15;3.63;;;3.00;;
22922;SDS011;11627;51.322;22.816;2023-07-20T10:53:52;5.40;;;2.75;;
22922;SDS011;11627;51.322;22.816;2023-07-20T10:56:20;4.55;;;2.80;;
22922;SDS011;11627;51.322;22.816;2023-07-20T10:58:47;4.82;;;2.38;;
22922;SDS011;11627;51.322;22.816;2023-07-20T11:01:17;3.50;;;2.28;;
22922;SDS011;11627;51.322;22.816;2023-07-20T11:03:43;4.53;;;2.60;;
22922;SDS011;11627;51.322;22.816;2023-07-20T11:08:54;2.47;;;1.95;;
22922;SDS011;11627;51.322;22.816;2023-07-20T11:11:25;4.47;;;2.28;;
22922;SDS011;11627;51.322;22.816;2023-07-20T11:13:57;4.05;;;2.10;;
22922;SDS011;11627;51.322;22.816;2023-07-20T11:16:32;2.97;;;1.90;;
22922;SDS011;11627;51.322;22.816;2023-07-20T11:19:21;4.30;;;2.00;;
22922;SDS011;11627;51.322;22.816;2023-07-20T11:24:20;2.30;;;2.10;;
22922;SDS011;11627;51.322;22.816;2023-07-20T11:26:50;3.70;;;2.13;;
22922;SDS011;11627;51.322;22.816;2023-07-20T11:29:17;4.35;;;2.03;;
22922;SDS011;11627;51.322;22.816;2023-07-20T11:31:45;3.28;;;2.17;;
22922;SDS011;11627;51.322;22.816;2023-07-20T11:34:19;4.25;;;2.58;;
22922;SDS011;11627;51.322;22.816;2023-07-20T11:36:47;4.32;;;3.08;;
22922;SDS011;11627;51.322;22.816;2023-07-20T11:39:15;3.85;;;2.58;;
22922;SDS011;11627;51.322;22.816;2023-07-20T11:41:46;5.05;;;2.78;;
22922;SDS011;11627;51.322;22.816;2023-07-20T11:44:17;2.70;;;2.45;;
22922;SDS011;11627;51.322;22.816;2023-07-20T11:46:44;3.58;;;2.20;;
22922;SDS011;11627;51.322;22.816;2023-07-20T11:49:11;4.30;;;2.35;;
22922;SDS011;11627;51.322;22.816;2023-07-20T11:51:38;6.25;;;2.92;;
22922;SDS011;11627;51.322;22.816;2023-07-20T11:54:06;5.50;;;2.65;;
22922;SDS011;11627;51.322;22.816;2023-07-20T11:56:33;3.53;;;2.35;;
22922;SDS011;11627;51.322;22.816;2023-07-20T11:59:00;3.08;;;2.63;;
22922;SDS011;11627;51.322;22.816;2023-07-20T12:01:28;3.65;;;2.22;;
22922;SDS011;11627;51.322;22.816;2023-07-20T12:03:57;6.90;;;2.50;;
22922;SDS011;11627;51.322;22.816;2023-07-20T12:06:24;6.13;;;2.05;;
22922;SDS011;11627;51.322;22.816;2023-07-20T12:08:56;4.55;;;2.28;;
22922;SDS011;11627;51.322;22.816;2023-07-20T12:11:33;3.42;;;2.35;;
22922;SDS011;11627;51.322;22.816;2023-07-20T12:14:08;3.10;;;2.40;;
22922;SDS011;11627;51.322;22.816;2023-07-20T12:16:35;5.15;;;2.10;;
22922;SDS011;11627;51.322;22.816;2023-07-20T12:19:10;4.82;;;2.47;;
22922;SDS011;11627;51.322;22.816;2023-07-20T12:21:43;4.53;;;2.55;;
22922;SDS011;11627;51.322;22.816;2023-07-20T12:24:12;3.55;;;2.42;;
22922;SDS011;11627;51.322;22.816;2023-07-20T12:26:41;4.00;;;2.28;;
22922;SDS011;11627;51.322;22.816;2023-07-20T12:29:10;3.22;;;2.42;;
22922;SDS011;11627;51.322;22.816;2023-07-20T12:31:37;5.80;;;2.80;;
22922;SDS011;11627;51.322;22.816;2023-07-20T12:34:02;2.40;;;2.08;;
22922;SDS011;11627;51.322;22.816;2023-07-20T12:36:28;3.85;;;2.10;;
22922;SDS011;11627;51.322;22.816;2023-07-20T12:38:56;4.15;;;2.63;;
22922;SDS011;11627;51.322;22.816;2023-07-20T12:41:21;3.45;;;2.70;;
22922;SDS011;11627;51.322;22.816;2023-07-20T12:43:47;4.68;;;2.60;;
22922;SDS011;11627;51.322;22.816;2023-07-20T12:46:14;5.07;;;2.40;;
22922;SDS011;11627;51.322;22.816;2023-07-20T12:48:41;3.63;;;2.10;;
22922;SDS011;11627;51.322;22.816;2023-07-20T12:51:08;4.10;;;2.35;;
22922;SDS011;11627;51.322;22.816;2023-07-20T12:53:34;3.78;;;2.47;;
22922;SDS011;11627;51.322;22.816;2023-07-20T12:56:00;3.58;;;2.33;;
22922;SDS011;11627;51.322;22.816;2023-07-20T12:58:26;6.35;;;2.13;;
22922;SDS011;11627;51.322;22.816;2023-07-20T13:00:53;4.43;;;2.40;;
22922;SDS011;11627;51.322;22.816;2023-07-20T13:03:19;3.35;;;2.03;;
22922;SDS011;11627;51.322;22.816;2023-07-20T13:05:48;5.68;;;1.98;;
22922;SDS011;11627;51.322;22.816;2023-07-20T13:08:14;2.70;;;1.70;;
22922;SDS011;11627;51.322;22.816;2023-07-20T13:10:40;3.30;;;1.92;;
22922;SDS011;11627;51.322;22.816;2023-07-20T13:13:07;3.08;;;2.15;;
22922;SDS011;11627;51.322;22.816;2023-07-20T13:15:40;2.20;;;2.00;;
22922;SDS011;11627;51.322;22.816;2023-07-20T13:18:08;4.85;;;2.25;;
22922;SDS011;11627;51.322;22.816;2023-07-20T13:20:34;2.80;;;2.17;;
22922;SDS011;11627;51.322;22.816;2023-07-20T13:23:00;5.00;;;2.35;;
22922;SDS011;11627;51.322;22.816;2023-07-20T13:25:26;5.25;;;2.38;;
22922;SDS011;11627;51.322;22.816;2023-07-20T13:27:53;4.50;;;2.17;;
22922;SDS011;11627;51.322;22.816;2023-07-20T13:30:19;3.67;;;2.50;;
22922;SDS011;11627;51.322;22.816;2023-07-20T13:32:46;4.40;;;2.38;;
22922;SDS011;11627;51.322;22.816;2023-07-20T13:35:12;2.47;;;2.20;;
22922;SDS011;11627;51.322;22.816;2023-07-20T13:37:38;3.22;;;1.80;;
22922;SDS011;11627;51.322;22.816;2023-07-20T13:40:05;2.75;;;1.88;;
22922;SDS011;11627;51.322;22.816;2023-07-20T13:42:33;2.85;;;1.90;;
22922;SDS011;11627;51.322;22.816;2023-07-20T13:44:59;2.30;;;1.77;;
22922;SDS011;11627;51.322;22.816;2023-07-20T13:47:26;1.83;;;1.40;;
22922;SDS011;11627;51.322;22.816;2023-07-20T13:49:52;4.07;;;1.13;;
22922;SDS011;11627;51.322;22.816;2023-07-20T13:52:18;2.65;;;1.60;;
22922;SDS011;11627;51.322;22.816;2023-07-20T13:54:44;2.08;;;1.38;;
22922;SDS011;11627;51.322;22.816;2023-07-20T13:57:10;3.28;;;1.30;;
22922;SDS011;11627;51.322;22.816;2023-07-20T13:59:36;1.27;;;1.15;;
22922;SDS011;11627;51.322;22.816;2023-07-20T14:02:02;1.25;;;1.15;;
22922;SDS011;11627;51.322;22.816;2023-07-20T14:04:29;1.98;;;1.65;;
22922;SDS011;11627;51.322;22.816;2023-07-20T14:06:54;1.83;;;1.38;;
22922;SDS011;11627;51.322;22.816;2023-07-20T14:09:20;1.30;;;1.20;;
22922;SDS011;11627;51.322;22.816;2023-07-20T14:11:46;2.13;;;1.50;;
22922;SDS011;11627;51.322;22.816;2023-07-20T14:14:12;2.47;;;1.83;;
22922;SDS011;11627;51.322;22.816;2023-07-20T14:16:38;1.65;;;1.55;;
22922;SDS011;11627;51.322;22.816;2023-07-20T14:19:04;3.05;;;1.63;;
22922;SDS011;11627;51.322;22.816;2023-07-20T14:21:30;2.77;;;1.70;;
22922;SDS011;11627;51.322;22.816;2023-07-20T14:23:57;2.10;;;1.90;;
22922;SDS011;11627;51.322;22.816;2023-07-20T14:26:26;2.20;;;1.80;;
22922;SDS011;11627;51.322;22.816;2023-07-20T14:28:56;3.25;;;1.70;;
22922;SDS011;11627;51.322;22.816;2023-07-20T14:31:25;1.83;;;1.65;;
22922;SDS011;11627;51.322;22.816;2023-07-20T14:33:53;3.22;;;1.65;;
22922;SDS011;11627;51.322;22.816;2023-07-20T14:36:19;3.20;;;1.48;;
22922;SDS011;11627;51.322;22.816;2023-07-20T14:38:47;2.10;;;1.60;;
22922;SDS011;11627;51.322;22.816;2023-07-20T14:41:15;3.30;;;1.90;;
22922;SDS011;11627;51.322;22.816;2023-07-20T14:43:44;4.53;;;1.65;;
22922;SDS011;11627;51.322;22.816;2023-07-20T14:46:12;3.72;;;1.90;;
22922;SDS011;11627;51.322;22.816;2023-07-20T14:48:41;3.40;;;1.48;;
22922;SDS011;11627;51.322;22.816;2023-07-20T14:51:08;2.45;;;1.80;;
22922;SDS011;11627;51.322;22.816;2023-07-20T14:53:34;2.25;;;1.77;;
22922;SDS011;11627;51.322;22.816;2023-07-20T14:56:00;4.97;;;1.80;;
22922;SDS011;11627;51.322;22.816;2023-07-20T14:58:27;2.28;;;1.73;;
22922;SDS011;11627;51.322;22.816;2023-07-20T15:00:54;3.03;;;2.00;;
22922;SDS011;11627;51.322;22.816;2023-07-20T15:03:20;3.50;;;1.70;;
22922;SDS011;11627;51.322;22.816;2023-07-20T15:05:47;1.77;;;1.67;;
22922;SDS011;11627;51.322;22.816;2023-07-20T15:08:13;5.07;;;1.67;;